sensor_id;sensor_type;location;lat;lon;timestamp;P1;durP1;ratioP1;P2;durP2;ratioP2
84113;SDS011;74483;48.846;2.358;2024-01-06T00:00:54;1.10;;;1.00;;
84113;SDS011;74483;48.846;2.358;2024-01-06T00:03:20;1.10;;;1.00;;
84113;SDS011;74483;48.846;2.358;2024-01-06T00:05:45;1.35;;;1.20;;
84113;SDS011;74483;48.846;2.358;2024-01-06T00:08:11;1.63;;;1.17;;
84113;SDS011;74483;48.846;2.358;2024-01-06T00:10:37;1.10;;;1.00;;
84113;SDS011;74483;48.846;2.358;2024-01-06T00:13:02;1.85;;;1.20;;
84113;SDS011;74483;48.846;2.358;2024-01-06T00:15:28;1.17;;;1.08;;
84113;SDS011;74483;48.846;2.358;2024-01-06T00:17:53;1.38;;;1.10;;
84113;SDS011;74483;48.846;2.358;2024-01-06T00:20:19;1.52;;;1.10;;
84113;SDS011;74483;48.846;2.358;2024-01-06T00:22:44;1.10;;;1.00;;
84113;SDS011;74483;48.846;2.358;2024-01-06T00:25:10;2.13;;;1.30;;
84113;SDS011;74483;48.846;2.358;2024-01-06T00:27:36;1.27;;;1.00;;
84113;SDS011;74483;48.846;2.358;2024-01-06T00:30:01;1.63;;;1.30;;
84113;SDS011;74483;48.846;2.358;2024-01-06T00:32:28;1.15;;;1.00;;
84113;SDS011;74483;48.846;2.358;2024-01-06T00:34:54;1.50;;;1.20;;
84113;SDS011;74483;48.846;2.358;2024-01-06T00:37:19;1.08;;;0.98;;
84113;SDS011;74483;48.846;2.358;2024-01-06T00:39:45;1.15;;;1.05;;
84113;SDS011;74483;48.846;2.358;2024-01-06T00:42:11;1.20;;;1.10;;
84113;SDS011;74483;48.846;2.358;2024-01-06T00:44:36;1.10;;;1.00;;
84113;SDS011;74483;48.846;2.358;2024-01-06T00:47:02;2.03;;;1.27;;
84113;SDS011;74483;48.846;2.358;2024-01-06T00:49:28;1.38;;;1.02;;
84113;SDS011;74483;48.846;2.358;2024-01-06T00:51:53;1.10;;;1.00;;
84113;SDS011;74483;48.846;2.358;2024-01-06T00:54:19;2.10;;;1.30;;
84113;SDS011;74483;48.846;2.358;2024-01-06T00:56:44;1.30;;;1.20;;
84113;SDS011;74483;48.846;2.358;2024-01-06T00:59:10;1.55;;;1.00;;
84113;SDS011;74483;48.846;2.358;2024-01-06T01:01:36;1.40;;;1.00;;
84113;SDS011;74483;48.846;2.358;2024-01-06T01:04:01;1.02;;;0.82;;
84113;SDS011;74483;48.846;2.358;2024-01-06T01:06:27;1.38;;;1.05;;
84113;SDS011;74483;48.846;2.358;2024-01-06T01:08:52;1.38;;;1.17;;
84113;SDS011;74483;48.846;2.358;2024-01-06T01:11:18;1.02;;;0.93;;
84113;SDS011;74483;48.846;2.358;2024-01-06T01:13:44;1.52;;;1.05;;
84113;SDS011;74483;48.846;2.358;2024-01-06T01:16:10;1.00;;;0.90;;
84113;SDS011;74483;48.846;2.358;2024-01-06T01:18:35;1.15;;;1.05;;
84113;SDS011;74483;48.846;2.358;2024-01-06T01:21:01;1.42;;;1.10;;
84113;SDS011;74483;48.846;2.358;2024-01-06T01:23:27;1.42;;;1.30;;
84113;SDS011;74483;48.846;2.358;2024-01-06T01:25:53;1.92;;;1.42;;
84113;SDS011;74483;48.846;2.358;2024-01-06T01:28:19;1.40;;;1.20;;
84113;SDS011;74483;48.846;2.358;2024-01-06T01:30:44;1.90;;;1.30;;
84113;SDS011;74483;48.846;2.358;2024-01-06T01:33:10;1.23;;;1.13;;
84113;SDS011;74483;48.846;2.358;2024-01-06T01:35:36;1.55;;;1.30;;
84113;SDS011;74483;48.846;2.358;2024-01-06T01:38:01;1.30;;;1.20;;
84113;SDS011;74483;48.846;2.358;2024-01-06T01:40:27;1.63;;;1.40;;
84113;SDS011;74483;48.846;2.358;2024-01-06T01:42:53;1.55;;;1.20;;
84113;SDS011;74483;48.846;2.358;2024-01-06T01:45:18;1.65;;;1.33;;
84113;SDS011;74483;48.846;2.358;2024-01-06T01:47:44;1.20;;;1.10;;
84113;SDS011;74483;48.846;2.358;2024-01-06T01:50:11;1.38;;;1.15;;
84113;SDS011;74483;48.846;2.358;2024-01-06T01:52:37;1.38;;;1.10;;
84113;SDS011;74483;48.846;2.358;2024-01-06T01:55:05;1.35;;;1.25;;
84113;SDS011;74483;48.846;2.358;2024-01-06T01:57:31;1.40;;;1.30;;
84113;SDS011;74483;48.846;2.358;2024-01-06T01:59:57;1.35;;;1.20;;
84113;SDS011;74483;48.846;2.358;2024-01-06T02:02:22;1.20;;;1.10;;
84113;SDS011;74483;48.846;2.358;2024-01-06T02:04:48;1.33;;;1.00;;
84113;SDS011;74483;48.846;2.358;2024-01-06T02:07:14;1.30;;;1.20;;
84113;SDS011;74483;48.846;2.358;2024-01-06T02:09:39;1.60;;;1.25;;
84113;SDS011;74483;48.846;2.358;2024-01-06T02:12:05;1.10;;;1.00;;
84113;SDS011;74483;48.846;2.358;2024-01-06T02:14:31;1.83;;;1.40;;
84113;SDS011;74483;48.846;2.358;2024-01-06T02:16:57;1.13;;;1.02;;
84113;SDS011;74483;48.846;2.358;2024-01-06T02:19:23;1.35;;;1.05;;
84113;SDS011;74483;48.846;2.358;2024-01-06T02:21:52;1.05;;;1.00;;
84113;SDS011;74483;48.846;2.358;2024-01-06T02:24:19;1.20;;;1.10;;
84113;SDS011;74483;48.846;2.358;2024-01-06T02:26:45;1.50;;;1.33;;
84113;SDS011;74483;48.846;2.358;2024-01-06T02:29:10;1.35;;;1.15;;
84113;SDS011;74483;48.846;2.358;2024-01-06T02:31:36;1.30;;;1.20;;
84113;SDS011;74483;48.846;2.358;2024-01-06T02:34:02;1.13;;;1.00;;
84113;SDS011;74483;48.846;2.358;2024-01-06T02:36:27;1.58;;;1.20;;
84113;SDS011;74483;48.846;2.358;2024-01-06T02:38:53;1.02;;;0.93;;
84113;SDS011;74483;48.846;2.358;2024-01-06T02:41:18;1.30;;;1.20;;
84113;SDS011;74483;48.846;2.358;2024-01-06T02:43:44;1.27;;;1.05;;
84113;SDS011;74483;48.846;2.358;2024-01-06T02:46:10;1.60;;;1.00;;
84113;SDS011;74483;48.846;2.358;2024-01-06T02:48:35;2.13;;;1.20;;
84113;SDS011;74483;48.846;2.358;2024-01-06T02:51:01;0.90;;;0.80;;
84113;SDS011;74483;48.846;2.358;2024-01-06T02:53:26;0.98;;;0.93;;
84113;SDS011;74483;48.846;2.358;2024-01-06T02:55:52;2.08;;;1.25;;
84113;SDS011;74483;48.846;2.358;2024-01-06T02:58:17;1.45;;;1.17;;
84113;SDS011;74483;48.846;2.358;2024-01-06T03:00:43;1.20;;;1.10;;
84113;SDS011;74483;48.846;2.358;2024-01-06T03:03:08;1.25;;;1.00;;
84113;SDS011;74483;48.846;2.358;2024-01-06T03:05:34;1.00;;;0.93;;
84113;SDS011;74483;48.846;2.358;2024-01-06T03:08:02;1.42;;;1.30;;
84113;SDS011;74483;48.846;2.358;2024-01-06T03:10:28;1.67;;;1.20;;
84113;SDS011;74483;48.846;2.358;2024-01-06T03:12:53;0.95;;;0.88;;
84113;SDS011;74483;48.846;2.358;2024-01-06T03:15:19;1.55;;;1.10;;
84113;SDS011;74483;48.846;2.358;2024-01-06T03:17:44;1.20;;;1.10;;
84113;SDS011;74483;48.846;2.358;2024-01-06T03:20:10;1.30;;;1.00;;
84113;SDS011;74483;48.846;2.358;2024-01-06T03:22:36;1.17;;;1.00;;
84113;SDS011;74483;48.846;2.358;2024-01-06T03:25:03;1.27;;;0.90;;
84113;SDS011;74483;48.846;2.358;2024-01-06T03:27:29;1.10;;;0.90;;
84113;SDS011;74483;48.846;2.358;2024-01-06T03:29:55;1.20;;;1.10;;
84113;SDS011;74483;48.846;2.358;2024-01-06T03:32:21;1.20;;;1.10;;
84113;SDS011;74483;48.846;2.358;2024-01-06T03:34:46;1.13;;;1.00;;
84113;SDS011;74483;48.846;2.358;2024-01-06T03:37:12;0.80;;;0.80;;
84113;SDS011;74483;48.846;2.358;2024-01-06T03:39:38;1.27;;;0.98;;
84113;SDS011;74483;48.846;2.358;2024-01-06T03:42:03;1.10;;;1.00;;
84113;SDS011;74483;48.846;2.358;2024-01-06T03:44:29;1.20;;;1.10;;
84113;SDS011;74483;48.846;2.358;2024-01-06T03:46:58;1.13;;;1.02;;
84113;SDS011;74483;48.846;2.358;2024-01-06T03:49:24;0.98;;;0.95;;
84113;SDS011;74483;48.846;2.358;2024-01-06T03:51:50;1.05;;;0.95;;
84113;SDS011;74483;48.846;2.358;2024-01-06T03:54:16;1.50;;;1.20;;
84113;SDS011;74483;48.846;2.358;2024-01-06T03:56:42;1.20;;;1.10;;
84113;SDS011;74483;48.846;2.358;2024-01-06T03:59:07;1.52;;;0.93;;
84113;SDS011;74483;48.846;2.358;2024-01-06T04:01:33;1.30;;;1.00;;
84113;SDS011;74483;48.846;2.358;2024-01-06T04:04:02;1.10;;;1.00;;
84113;SDS011;74483;48.846;2.358;2024-01-06T04:06:28;1.42;;;1.10;;
84113;SDS011;74483;48.846;2.358;2024-01-06T04:08:54;1.27;;;1.17;;
84113;SDS011;74483;48.846;2.358;2024-01-06T04:11:20;1.27;;;1.08;;
84113;SDS011;74483;48.846;2.358;2024-01-06T04:13:46;1.52;;;0.93;;
84113;SDS011;74483;48.846;2.358;2024-01-06T04:16:12;1.20;;;1.00;;
84113;SDS011;74483;48.846;2.358;2024-01-06T04:18:37;1.00;;;0.90;;
84113;SDS011;74483;48.846;2.358;2024-01-06T04:21:03;1.15;;;1.05;;
84113;SDS011;74483;48.846;2.358;2024-01-06T04:23:30;1.70;;;1.10;;
84113;SDS011;74483;48.846;2.358;2024-01-06T04:25:55;1.00;;;0.90;;
84113;SDS011;74483;48.846;2.358;2024-01-06T04:28:21;1.30;;;1.20;;
84113;SDS011;74483;48.846;2.358;2024-01-06T04:30:47;1.33;;;1.00;;
84113;SDS011;74483;48.846;2.358;2024-01-06T04:33:13;1.10;;;1.00;;
84113;SDS011;74483;48.846;2.358;2024-01-06T04:35:38;1.33;;;1.00;;
84113;SDS011;74483;48.846;2.358;2024-01-06T04:38:04;1.08;;;1.00;;
84113;SDS011;74483;48.846;2.358;2024-01-06T04:40:30;1.20;;;1.10;;
84113;SDS011;74483;48.846;2.358;2024-01-06T04:42:55;1.67;;;1.00;;
84113;SDS011;74483;48.846;2.358;2024-01-06T04:45:21;1.20;;;1.10;;
84113;SDS011;74483;48.846;2.358;2024-01-06T04:47:49;1.83;;;1.20;;
84113;SDS011;74483;48.846;2.358;2024-01-06T04:50:15;1.70;;;1.35;;
84113;SDS011;74483;48.846;2.358;2024-01-06T04:52:41;1.23;;;1.13;;
84113;SDS011;74483;48.846;2.358;2024-01-06T04:55:06;1.10;;;1.00;;
84113;SDS011;74483;48.846;2.358;2024-01-06T04:57:32;1.20;;;1.10;;
84113;SDS011;74483;48.846;2.358;2024-01-06T04:59:58;1.33;;;1.20;;
84113;SDS011;74483;48.846;2.358;2024-01-06T05:02:24;1.30;;;1.20;;
84113;SDS011;74483;48.846;2.358;2024-01-06T05:04:50;1.38;;;1.00;;
84113;SDS011;74483;48.846;2.358;2024-01-06T05:07:16;1.20;;;1.10;;
84113;SDS011;74483;48.846;2.358;2024-01-06T05:09:42;1.50;;;1.10;;
84113;SDS011;74483;48.846;2.358;2024-01-06T05:12:07;1.17;;;1.08;;
84113;SDS011;74483;48.846;2.358;2024-01-06T05:14:33;1.05;;;1.00;;
84113;SDS011;74483;48.846;2.358;2024-01-06T05:16:59;1.02;;;0.90;;
84113;SDS011;74483;48.846;2.358;2024-01-06T05:19:25;1.85;;;1.15;;
84113;SDS011;74483;48.846;2.358;2024-01-06T05:21:50;1.52;;;1.20;;
84113;SDS011;74483;48.846;2.358;2024-01-06T05:24:16;1.13;;;1.02;;
84113;SDS011;74483;48.846;2.358;2024-01-06T05:26:42;1.50;;;1.15;;
84113;SDS011;74483;48.846;2.358;2024-01-06T05:29:08;1.25;;;1.02;;
84113;SDS011;74483;48.846;2.358;2024-01-06T05:31:33;1.23;;;1.13;;
84113;SDS011;74483;48.846;2.358;2024-01-06T05:33:59;1.17;;;1.08;;
84113;SDS011;74483;48.846;2.358;2024-01-06T05:36:24;1.10;;;1.00;;
84113;SDS011;74483;48.846;2.358;2024-01-06T05:38:50;1.77;;;1.30;;
84113;SDS011;74483;48.846;2.358;2024-01-06T05:41:16;1.20;;;1.10;;
84113;SDS011;74483;48.846;2.358;2024-01-06T05:43:42;1.92;;;1.10;;
84113;SDS011;74483;48.846;2.358;2024-01-06T05:46:07;1.20;;;1.00;;
84113;SDS011;74483;48.846;2.358;2024-01-06T05:48:33;1.30;;;1.20;;
84113;SDS011;74483;48.846;2.358;2024-01-06T05:50:59;1.20;;;1.10;;
84113;SDS011;74483;48.846;2.358;2024-01-06T05:53:24;1.17;;;1.08;;
84113;SDS011;74483;48.846;2.358;2024-01-06T05:55:50;1.25;;;1.15;;
84113;SDS011;74483;48.846;2.358;2024-01-06T05:58:16;1.25;;;1.15;;
84113;SDS011;74483;48.846;2.358;2024-01-06T06:00:42;1.17;;;1.08;;
84113;SDS011;74483;48.846;2.358;2024-01-06T06:03:08;1.40;;;1.20;;
84113;SDS011;74483;48.846;2.358;2024-01-06T06:05:33;1.20;;;1.10;;
84113;SDS011;74483;48.846;2.358;2024-01-06T06:07:59;1.23;;;1.13;;
84113;SDS011;74483;48.846;2.358;2024-01-06T06:10:24;1.60;;;1.33;;
84113;SDS011;74483;48.846;2.358;2024-01-06T06:13:05;1.20;;;1.10;;
84113;SDS011;74483;48.846;2.358;2024-01-06T06:15:30;1.20;;;1.00;;
84113;SDS011;74483;48.846;2.358;2024-01-06T06:17:56;1.00;;;0.90;;
84113;SDS011;74483;48.846;2.358;2024-01-06T06:20:24;1.73;;;1.10;;
84113;SDS011;74483;48.846;2.358;2024-01-06T06:22:50;1.08;;;1.00;;
84113;SDS011;74483;48.846;2.358;2024-01-06T06:25:15;1.00;;;0.90;;
84113;SDS011;74483;48.846;2.358;2024-01-06T06:27:41;1.02;;;0.93;;
84113;SDS011;74483;48.846;2.358;2024-01-06T06:30:06;1.20;;;1.10;;
84113;SDS011;74483;48.846;2.358;2024-01-06T06:32:33;1.05;;;0.90;;
84113;SDS011;74483;48.846;2.358;2024-01-06T06:34:58;1.30;;;1.20;;
84113;SDS011;74483;48.846;2.358;2024-01-06T06:37:24;1.10;;;0.98;;
84113;SDS011;74483;48.846;2.358;2024-01-06T06:39:50;0.80;;;0.80;;
84113;SDS011;74483;48.846;2.358;2024-01-06T06:42:15;0.77;;;0.70;;
84113;SDS011;74483;48.846;2.358;2024-01-06T06:44:41;1.27;;;0.98;;
84113;SDS011;74483;48.846;2.358;2024-01-06T06:47:06;0.95;;;0.93;;
84113;SDS011;74483;48.846;2.358;2024-01-06T06:49:32;0.88;;;0.88;;
84113;SDS011;74483;48.846;2.358;2024-01-06T06:51:57;0.82;;;0.75;;
84113;SDS011;74483;48.846;2.358;2024-01-06T06:54:23;0.93;;;0.73;;
84113;SDS011;74483;48.846;2.358;2024-01-06T06:56:48;0.85;;;0.75;;
84113;SDS011;74483;48.846;2.358;2024-01-06T06:59:14;2.10;;;0.80;;
84113;SDS011;74483;48.846;2.358;2024-01-06T07:01:39;0.93;;;0.82;;
84113;SDS011;74483;48.846;2.358;2024-01-06T07:04:05;1.02;;;0.93;;
84113;SDS011;74483;48.846;2.358;2024-01-06T07:06:31;1.10;;;1.00;;
84113;SDS011;74483;48.846;2.358;2024-01-06T07:08:56;0.85;;;0.70;;
84113;SDS011;74483;48.846;2.358;2024-01-06T07:11:22;1.27;;;1.00;;
84113;SDS011;74483;48.846;2.358;2024-01-06T07:13:49;1.00;;;0.88;;
84113;SDS011;74483;48.846;2.358;2024-01-06T07:16:14;1.30;;;0.90;;
84113;SDS011;74483;48.846;2.358;2024-01-06T07:18:40;1.08;;;0.88;;
84113;SDS011;74483;48.846;2.358;2024-01-06T07:21:06;1.23;;;0.85;;
84113;SDS011;74483;48.846;2.358;2024-01-06T07:23:32;1.08;;;0.80;;
84113;SDS011;74483;48.846;2.358;2024-01-06T07:25:58;0.60;;;0.60;;
84113;SDS011;74483;48.846;2.358;2024-01-06T07:28:24;1.10;;;0.90;;
84113;SDS011;74483;48.846;2.358;2024-01-06T07:30:49;0.70;;;0.70;;
84113;SDS011;74483;48.846;2.358;2024-01-06T07:33:15;1.00;;;0.80;;
84113;SDS011;74483;48.846;2.358;2024-01-06T07:35:40;1.20;;;1.00;;
84113;SDS011;74483;48.846;2.358;2024-01-06T07:38:09;0.75;;;0.70;;
84113;SDS011;74483;48.846;2.358;2024-01-06T07:40:35;1.35;;;0.90;;
84113;SDS011;74483;48.846;2.358;2024-01-06T07:43:01;1.20;;;0.80;;
84113;SDS011;74483;48.846;2.358;2024-01-06T07:45:27;1.02;;;0.93;;
84113;SDS011;74483;48.846;2.358;2024-01-06T07:47:52;1.23;;;0.80;;
84113;SDS011;74483;48.846;2.358;2024-01-06T07:50:18;1.00;;;0.90;;
84113;SDS011;74483;48.846;2.358;2024-01-06T07:52:44;0.80;;;0.70;;
84113;SDS011;74483;48.846;2.358;2024-01-06T07:55:09;1.35;;;0.90;;
84113;SDS011;74483;48.846;2.358;2024-01-06T07:57:35;1.50;;;0.93;;
84113;SDS011;74483;48.846;2.358;2024-01-06T08:00:00;0.75;;;0.75;;
84113;SDS011;74483;48.846;2.358;2024-01-06T08:02:26;1.00;;;0.70;;
84113;SDS011;74483;48.846;2.358;2024-01-06T08:04:51;1.08;;;0.80;;
84113;SDS011;74483;48.846;2.358;2024-01-06T08:07:18;0.95;;;0.80;;
84113;SDS011;74483;48.846;2.358;2024-01-06T08:09:44;0.70;;;0.70;;
84113;SDS011;74483;48.846;2.358;2024-01-06T08:12:10;0.65;;;0.65;;
84113;SDS011;74483;48.846;2.358;2024-01-06T08:14:35;0.80;;;0.73;;
84113;SDS011;74483;48.846;2.358;2024-01-06T08:17:01;0.70;;;0.70;;
84113;SDS011;74483;48.846;2.358;2024-01-06T08:19:26;0.80;;;0.80;;
84113;SDS011;74483;48.846;2.358;2024-01-06T08:21:54;0.75;;;0.60;;
84113;SDS011;74483;48.846;2.358;2024-01-06T08:24:20;0.80;;;0.80;;
84113;SDS011;74483;48.846;2.358;2024-01-06T08:26:46;0.90;;;0.80;;
84113;SDS011;74483;48.846;2.358;2024-01-06T08:29:12;1.65;;;0.70;;
84113;SDS011;74483;48.846;2.358;2024-01-06T08:31:39;1.10;;;0.80;;
84113;SDS011;74483;48.846;2.358;2024-01-06T08:34:04;0.70;;;0.70;;
84113;SDS011;74483;48.846;2.358;2024-01-06T08:36:32;0.90;;;0.70;;
84113;SDS011;74483;48.846;2.358;2024-01-06T08:38:57;0.82;;;0.77;;
84113;SDS011;74483;48.846;2.358;2024-01-06T08:41:23;0.70;;;0.70;;
84113;SDS011;74483;48.846;2.358;2024-01-06T08:43:48;0.80;;;0.80;;
84113;SDS011;74483;48.846;2.358;2024-01-06T09:01:01;0.60;;;0.60;;
84113;SDS011;74483;48.846;2.358;2024-01-06T09:03:52;0.73;;;0.73;;
84113;SDS011;74483;48.846;2.358;2024-01-06T09:06:43;0.70;;;0.63;;
84113;SDS011;74483;48.846;2.358;2024-01-06T09:09:10;0.70;;;0.70;;
84113;SDS011;74483;48.846;2.358;2024-01-06T09:11:35;0.73;;;0.70;;
84113;SDS011;74483;48.846;2.358;2024-01-06T09:14:01;0.77;;;0.70;;
84113;SDS011;74483;48.846;2.358;2024-01-06T09:16:27;0.60;;;0.60;;
84113;SDS011;74483;48.846;2.358;2024-01-06T09:18:53;1.08;;;0.90;;
84113;SDS011;74483;48.846;2.358;2024-01-06T09:21:18;0.60;;;0.60;;
84113;SDS011;74483;48.846;2.358;2024-01-06T09:23:44;0.70;;;0.65;;
84113;SDS011;74483;48.846;2.358;2024-01-06T09:26:10;0.90;;;0.70;;
84113;SDS011;74483;48.846;2.358;2024-01-06T09:28:35;0.75;;;0.73;;
84113;SDS011;74483;48.846;2.358;2024-01-06T09:31:01;0.55;;;0.55;;
84113;SDS011;74483;48.846;2.358;2024-01-06T09:33:26;0.93;;;0.82;;
84113;SDS011;74483;48.846;2.358;2024-01-06T09:35:52;0.80;;;0.75;;
84113;SDS011;74483;48.846;2.358;2024-01-06T09:38:18;0.88;;;0.70;;
84113;SDS011;74483;48.846;2.358;2024-01-06T09:40:44;0.80;;;0.77;;
84113;SDS011;74483;48.846;2.358;2024-01-06T09:43:11;0.93;;;0.82;;
84113;SDS011;74483;48.846;2.358;2024-01-06T09:45:37;0.80;;;0.70;;
84113;SDS011;74483;48.846;2.358;2024-01-06T09:48:10;0.70;;;0.60;;
84113;SDS011;74483;48.846;2.358;2024-01-06T09:50:41;1.00;;;0.80;;
84113;SDS011;74483;48.846;2.358;2024-01-06T09:53:11;0.60;;;0.60;;
84113;SDS011;74483;48.846;2.358;2024-01-06T09:55:37;0.68;;;0.60;;
84113;SDS011;74483;48.846;2.358;2024-01-06T09:58:04;0.90;;;0.70;;
84113;SDS011;74483;48.846;2.358;2024-01-06T10:00:31;0.75;;;0.70;;
84113;SDS011;74483;48.846;2.358;2024-01-06T10:02:56;0.80;;;0.50;;
84113;SDS011;74483;48.846;2.358;2024-01-06T10:05:23;0.98;;;0.73;;
84113;SDS011;74483;48.846;2.358;2024-01-06T10:07:48;0.60;;;0.60;;
84113;SDS011;74483;48.846;2.358;2024-01-06T10:10:14;0.70;;;0.60;;
84113;SDS011;74483;48.846;2.358;2024-01-06T10:12:41;0.60;;;0.60;;
84113;SDS011;74483;48.846;2.358;2024-01-06T10:15:08;0.60;;;0.50;;
84113;SDS011;74483;48.846;2.358;2024-01-06T10:17:41;0.50;;;0.50;;
84113;SDS011;74483;48.846;2.358;2024-01-06T10:20:07;0.70;;;0.60;;
84113;SDS011;74483;48.846;2.358;2024-01-06T10:22:39;0.80;;;0.60;;
84113;SDS011;74483;48.846;2.358;2024-01-06T10:25:07;0.60;;;0.60;;
84113;SDS011;74483;48.846;2.358;2024-01-06T10:27:34;0.80;;;0.80;;
84113;SDS011;74483;48.846;2.358;2024-01-06T10:30:01;0.93;;;0.70;;
84113;SDS011;74483;48.846;2.358;2024-01-06T10:32:27;0.98;;;0.80;;
84113;SDS011;74483;48.846;2.358;2024-01-06T10:34:55;0.55;;;0.55;;
84113;SDS011;74483;48.846;2.358;2024-01-06T10:37:21;0.57;;;0.50;;
84113;SDS011;74483;48.846;2.358;2024-01-06T10:39:47;0.60;;;0.60;;
84113;SDS011;74483;48.846;2.358;2024-01-06T10:42:12;0.68;;;0.60;;
84113;SDS011;74483;48.846;2.358;2024-01-06T10:44:39;0.50;;;0.50;;
84113;SDS011;74483;48.846;2.358;2024-01-06T10:47:06;0.88;;;0.60;;
84113;SDS011;74483;48.846;2.358;2024-01-06T10:49:34;0.50;;;0.50;;
84113;SDS011;74483;48.846;2.358;2024-01-06T10:52:01;0.70;;;0.70;;
84113;SDS011;74483;48.846;2.358;2024-01-06T10:54:29;1.35;;;0.50;;
84113;SDS011;74483;48.846;2.358;2024-01-06T10:56:56;0.73;;;0.52;;
84113;SDS011;74483;48.846;2.358;2024-01-06T10:59:22;1.08;;;0.70;;
84113;SDS011;74483;48.846;2.358;2024-01-06T11:01:51;0.50;;;0.50;;
84113;SDS011;74483;48.846;2.358;2024-01-06T11:04:19;0.52;;;0.45;;
84113;SDS011;74483;48.846;2.358;2024-01-06T11:06:47;0.50;;;0.50;;
84113;SDS011;74483;48.846;2.358;2024-01-06T11:09:19;0.45;;;0.45;;
84113;SDS011;74483;48.846;2.358;2024-01-06T11:11:49;0.50;;;0.50;;
84113;SDS011;74483;48.846;2.358;2024-01-06T11:16:47;0.55;;;0.40;;
84113;SDS011;74483;48.846;2.358;2024-01-06T11:19:41;0.50;;;0.50;;
84113;SDS011;74483;48.846;2.358;2024-01-06T11:22:12;0.55;;;0.52;;
84113;SDS011;74483;48.846;2.358;2024-01-06T11:24:44;0.82;;;0.60;;
84113;SDS011;74483;48.846;2.358;2024-01-06T11:27:34;0.63;;;0.50;;
84113;SDS011;74483;48.846;2.358;2024-01-06T11:30:01;0.60;;;0.60;;
84113;SDS011;74483;48.846;2.358;2024-01-06T11:32:34;0.50;;;0.50;;
84113;SDS011;74483;48.846;2.358;2024-01-06T11:35:13;0.52;;;0.52;;
84113;SDS011;74483;48.846;2.358;2024-01-06T11:42:41;1.10;;;0.60;;
84113;SDS011;74483;48.846;2.358;2024-01-06T11:45:07;0.57;;;0.50;;
84113;SDS011;74483;48.846;2.358;2024-01-06T11:47:34;0.75;;;0.50;;
84113;SDS011;74483;48.846;2.358;2024-01-06T11:50:00;0.73;;;0.60;;
84113;SDS011;74483;48.846;2.358;2024-01-06T11:52:34;0.88;;;0.50;;
84113;SDS011;74483;48.846;2.358;2024-01-06T11:55:00;0.60;;;0.60;;
84113;SDS011;74483;48.846;2.358;2024-01-06T11:57:26;0.50;;;0.50;;
84113;SDS011;74483;48.846;2.358;2024-01-06T11:59:53;0.80;;;0.50;;
84113;SDS011;74483;48.846;2.358;2024-01-06T12:02:18;0.63;;;0.60;;
84113;SDS011;74483;48.846;2.358;2024-01-06T12:04:48;0.50;;;0.50;;
84113;SDS011;74483;48.846;2.358;2024-01-06T12:07:15;1.27;;;0.70;;
84113;SDS011;74483;48.846;2.358;2024-01-06T12:09:41;0.68;;;0.50;;
84113;SDS011;74483;48.846;2.358;2024-01-06T12:12:06;0.60;;;0.60;;
84113;SDS011;74483;48.846;2.358;2024-01-06T12:14:32;0.47;;;0.47;;
84113;SDS011;74483;48.846;2.358;2024-01-06T12:16:58;0.43;;;0.43;;
84113;SDS011;74483;48.846;2.358;2024-01-06T12:19:29;0.50;;;0.50;;
84113;SDS011;74483;48.846;2.358;2024-01-06T12:21:58;0.50;;;0.50;;
84113;SDS011;74483;48.846;2.358;2024-01-06T12:24:26;0.50;;;0.50;;
84113;SDS011;74483;48.846;2.358;2024-01-06T12:26:54;0.77;;;0.60;;
84113;SDS011;74483;48.846;2.358;2024-01-06T12:29:21;0.47;;;0.47;;
84113;SDS011;74483;48.846;2.358;2024-01-06T12:31:47;0.85;;;0.50;;
84113;SDS011;74483;48.846;2.358;2024-01-06T12:34:13;0.73;;;0.50;;
84113;SDS011;74483;48.846;2.358;2024-01-06T12:36:39;0.50;;;0.50;;
84113;SDS011;74483;48.846;2.358;2024-01-06T12:39:06;0.60;;;0.55;;
84113;SDS011;74483;48.846;2.358;2024-01-06T12:41:38;0.60;;;0.50;;
84113;SDS011;74483;48.846;2.358;2024-01-06T12:44:06;0.50;;;0.50;;
84113;SDS011;74483;48.846;2.358;2024-01-06T12:46:33;0.50;;;0.45;;
84113;SDS011;74483;48.846;2.358;2024-01-06T12:48:59;0.70;;;0.60;;
84113;SDS011;74483;48.846;2.358;2024-01-06T12:51:24;0.45;;;0.45;;
84113;SDS011;74483;48.846;2.358;2024-01-06T12:53:50;0.50;;;0.40;;
84113;SDS011;74483;48.846;2.358;2024-01-06T12:56:15;0.40;;;0.40;;
84113;SDS011;74483;48.846;2.358;2024-01-06T12:58:42;0.70;;;0.60;;
84113;SDS011;74483;48.846;2.358;2024-01-06T13:01:08;1.08;;;0.60;;
84113;SDS011;74483;48.846;2.358;2024-01-06T13:03:34;0.50;;;0.45;;
84113;SDS011;74483;48.846;2.358;2024-01-06T13:06:00;0.47;;;0.47;;
84113;SDS011;74483;48.846;2.358;2024-01-06T13:08:26;0.43;;;0.43;;
84113;SDS011;74483;48.846;2.358;2024-01-06T13:10:53;0.68;;;0.65;;
84113;SDS011;74483;48.846;2.358;2024-01-06T13:13:22;0.82;;;0.68;;
84113;SDS011;74483;48.846;2.358;2024-01-06T13:15:48;0.50;;;0.50;;
84113;SDS011;74483;48.846;2.358;2024-01-06T13:18:13;0.50;;;0.50;;
84113;SDS011;74483;48.846;2.358;2024-01-06T13:20:39;1.02;;;0.50;;
84113;SDS011;74483;48.846;2.358;2024-01-06T13:23:06;0.60;;;0.50;;
84113;SDS011;74483;48.846;2.358;2024-01-06T13:25:33;0.50;;;0.50;;
84113;SDS011;74483;48.846;2.358;2024-01-06T13:28:00;0.70;;;0.60;;
84113;SDS011;74483;48.846;2.358;2024-01-06T13:30:25;0.70;;;0.50;;
84113;SDS011;74483;48.846;2.358;2024-01-06T13:32:54;0.75;;;0.52;;
84113;SDS011;74483;48.846;2.358;2024-01-06T13:35:20;0.57;;;0.40;;
84113;SDS011;74483;48.846;2.358;2024-01-06T13:37:47;0.63;;;0.50;;
84113;SDS011;74483;48.846;2.358;2024-01-06T13:40:16;0.50;;;0.50;;
84113;SDS011;74483;48.846;2.358;2024-01-06T13:42:45;0.50;;;0.50;;
84113;SDS011;74483;48.846;2.358;2024-01-06T13:45:15;0.40;;;0.40;;
84113;SDS011;74483;48.846;2.358;2024-01-06T13:47:41;0.40;;;0.40;;
84113;SDS011;74483;48.846;2.358;2024-01-06T13:50:09;0.50;;;0.50;;
84113;SDS011;74483;48.846;2.358;2024-01-06T13:52:38;0.70;;;0.55;;
84113;SDS011;74483;48.846;2.358;2024-01-06T13:55:05;0.73;;;0.55;;
84113;SDS011;74483;48.846;2.358;2024-01-06T13:57:31;1.17;;;0.57;;
84113;SDS011;74483;48.846;2.358;2024-01-06T13:59:57;0.90;;;0.70;;
84113;SDS011;74483;48.846;2.358;2024-01-06T14:02:23;0.73;;;0.60;;
84113;SDS011;74483;48.846;2.358;2024-01-06T14:04:49;0.50;;;0.47;;
84113;SDS011;74483;48.846;2.358;2024-01-06T14:07:16;0.47;;;0.47;;
84113;SDS011;74483;48.846;2.358;2024-01-06T14:09:44;0.50;;;0.50;;
84113;SDS011;74483;48.846;2.358;2024-01-06T14:12:10;0.50;;;0.50;;
84113;SDS011;74483;48.846;2.358;2024-01-06T14:14:36;0.40;;;0.40;;
84113;SDS011;74483;48.846;2.358;2024-01-06T14:17:01;1.08;;;0.52;;
84113;SDS011;74483;48.846;2.358;2024-01-06T14:19:27;0.70;;;0.60;;
84113;SDS011;74483;48.846;2.358;2024-01-06T14:21:53;0.82;;;0.60;;
84113;SDS011;74483;48.846;2.358;2024-01-06T14:24:18;0.95;;;0.55;;
84113;SDS011;74483;48.846;2.358;2024-01-06T14:26:52;0.50;;;0.50;;
84113;SDS011;74483;48.846;2.358;2024-01-06T14:29:18;0.65;;;0.50;;
84113;SDS011;74483;48.846;2.358;2024-01-06T14:31:44;1.73;;;0.55;;
84113;SDS011;74483;48.846;2.358;2024-01-06T14:34:10;0.77;;;0.45;;
84113;SDS011;74483;48.846;2.358;2024-01-06T14:36:36;0.50;;;0.50;;
84113;SDS011;74483;48.846;2.358;2024-01-06T14:39:01;0.57;;;0.40;;
84113;SDS011;74483;48.846;2.358;2024-01-06T14:41:29;0.50;;;0.50;;
84113;SDS011;74483;48.846;2.358;2024-01-06T14:43:54;0.50;;;0.40;;
84113;SDS011;74483;48.846;2.358;2024-01-06T14:46:20;0.50;;;0.50;;
84113;SDS011;74483;48.846;2.358;2024-01-06T14:48:46;0.63;;;0.60;;
84113;SDS011;74483;48.846;2.358;2024-01-06T14:51:11;0.63;;;0.45;;
84113;SDS011;74483;48.846;2.358;2024-01-06T14:53:37;0.80;;;0.50;;
84113;SDS011;74483;48.846;2.358;2024-01-06T14:56:02;0.40;;;0.40;;
84113;SDS011;74483;48.846;2.358;2024-01-06T14:58:29;0.70;;;0.60;;
84113;SDS011;74483;48.846;2.358;2024-01-06T15:00:55;0.50;;;0.50;;
84113;SDS011;74483;48.846;2.358;2024-01-06T15:03:20;0.43;;;0.43;;
84113;SDS011;74483;48.846;2.358;2024-01-06T15:05:46;0.55;;;0.50;;